Time;durP1;ratioP1;P1;durP2;ratioP2;P2;SDS_P1;SDS_P2;PMS_P1;PMS_P2;Temp;Humidity;BMP_temperature;BMP_pressure;BME280_temperature;BME280_humidity;BME280_pressure;Samples;Min_cycle;Max_cycle;Signal;HPM_P1;HPM_P2
2022/09/07 00:01:48;;;;;;;1999.90;999.90;;;;;;;;;;5065426;28;20394;-71
2022/09/07 00:04:17;;;;;;;1999.90;999.90;;;;;;;;;;5063963;28;20465;-71
2022/09/07 00:06:45;;;;;;;1999.90;999.90;;;;;;;;;;5064751;28;20385;-71
2022/09/07 00:09:13;;;;;;;1999.90;999.90;;;;;;;;;;5064798;28;21264;-70
2022/09/07 00:11:43;;;;;;;1999.90;999.90;;;;;;;;;;5068628;28;20405;-71
2022/09/07 00:14:11;;;;;;;1999.90;999.90;;;;;;;;;;5065198;28;21418;-69
2022/09/07 00:16:40;;;;;;;1999.90;999.90;;;;;;;;;;5058653;28;20404;-70
2022/09/07 00:19:08;;;;;;;1999.90;999.90;;;;;;;;;;5067182;28;20939;-70
2022/09/07 00:21:37;;;;;;;1999.90;999.90;;;;;;;;;;5054063;28;20405;-70
2022/09/07 00:24:04;;;;;;;1999.90;999.90;;;;;;;;;;5066681;28;20434;-71
2022/09/07 00:26:32;;;;;;;1999.90;999.90;;;;;;;;;;5065353;28;20389;-71
2022/09/07 00:29:01;;;;;;;1999.90;999.90;;;;;;;;;;5076605;27;20457;-71
2022/09/07 00:31:30;;;;;;;1999.90;999.90;;;;;;;;;;5065078;28;20405;-70
2022/09/07 00:34:00;;;;;;;1999.90;999.90;;;;;;;;;;5062852;28;20403;-70
2022/09/07 00:36:28;;;;;;;1999.90;999.90;;;;;;;;;;5065999;28;20884;-70
2022/09/07 00:38:55;;;;;;;1999.90;999.90;;;;;;;;;;5066479;28;20889;-71
2022/09/07 00:41:24;;;;;;;1999.90;999.90;;;;;;;;;;5062958;28;20418;-69
2022/09/07 00:43:52;;;;;;;1999.90;999.90;;;;;;;;;;5062739;28;21961;-70
2022/09/07 00:46:21;;;;;;;1999.90;999.90;;;;;;;;;;5062501;28;20407;-70
2022/09/07 00:48:51;;;;;;;1999.90;999.90;;;;;;;;;;5069148;28;20399;-70
2022/09/07 00:51:24;;;;;;;1999.90;999.90;;;;;;;;;;5068488;28;20397;-70
2022/09/07 00:53:54;;;;;;;1999.90;999.90;;;;;;;;;;5073378;28;20417;-70
2022/09/07 00:56:23;;;;;;;1999.90;999.90;;;;;;;;;;5064004;28;20397;-70
2022/09/07 00:58:52;;;;;;;1999.90;999.90;;;;;;;;;;5069873;28;20451;-70
2022/09/07 01:01:20;;;;;;;1999.90;999.90;;;;;;;;;;5082998;28;20384;-70
2022/09/07 01:03:49;;;;;;;1999.90;999.90;;;;;;;;;;5068798;28;20450;-70
2022/09/07 01:06:18;;;;;;;1999.90;999.90;;;;;;;;;;5056912;28;20809;-70
2022/09/07 01:08:48;;;;;;;1999.90;999.90;;;;;;;;;;5067102;28;20400;-70
2022/09/07 01:11:17;;;;;;;1999.90;999.90;;;;;;;;;;5065608;28;20402;-70
2022/09/07 01:13:45;;;;;;;1999.90;999.90;;;;;;;;;;5066435;28;20404;-71
2022/09/07 01:16:17;;;;;;;1999.90;999.90;;;;;;;;;;5065573;28;20385;-70
2022/09/07 01:18:50;;;;;;;1999.90;999.90;;;;;;;;;;5079016;27;20428;-70
2022/09/07 01:21:23;;;;;;;1999.90;999.90;;;;;;;;;;5073534;28;20574;-70
2022/09/07 01:24:12;;;;;;;1999.90;999.90;;;;;;;;;;5063458;28;20397;-70
2022/09/07 01:26:58;;;;;;;1999.90;999.90;;;;;;;;;;5063415;28;20458;-70
2022/09/07 01:29:31;;;;;;;1999.90;999.90;;;;;;;;;;5063348;28;20541;-70
2022/09/07 01:32:05;;;;;;;1999.90;999.90;;;;;;;;;;5064731;28;20394;-70
2022/09/07 01:34:33;;;;;;;1999.90;999.90;;;;;;;;;;5058698;28;20410;-71
2022/09/07 01:37:05;;;;;;;1999.90;999.90;;;;;;;;;;5081430;27;21266;-69
2022/09/07 01:39:35;;;;;;;1999.90;999.90;;;;;;;;;;5064717;28;20472;-70
2022/09/07 01:42:06;;;;;;;1999.90;999.90;;;;;;;;;;5067931;28;20414;-70
2022/09/07 01:44:37;;;;;;;1999.90;999.90;;;;;;;;;;5048778;28;20959;-70
2022/09/07 01:47:07;;;;;;;1999.90;999.90;;;;;;;;;;5064521;28;20831;-70
2022/09/07 01:49:37;;;;;;;1999.90;999.90;;;;;;;;;;5061736;28;20395;-70
2022/09/07 01:52:07;;;;;;;1999.90;999.90;;;;;;;;;;5064285;28;20410;-70
2022/09/07 01:54:38;;;;;;;1999.90;999.90;;;;;;;;;;5062949;28;20978;-69
2022/09/07 01:57:08;;;;;;;1999.90;999.90;;;;;;;;;;5062645;28;20841;-69
2022/09/07 01:59:39;;;;;;;1999.90;999.90;;;;;;;;;;5064721;28;20411;-69
2022/09/07 02:02:09;;;;;;;1999.90;999.90;;;;;;;;;;5079700;27;20403;-70
2022/09/07 02:04:39;;;;;;;1999.90;999.90;;;;;;;;;;5064481;28;20465;-70
2022/09/07 02:07:11;;;;;;;1999.90;999.90;;;;;;;;;;5065860;28;21661;-69
2022/09/07 02:09:41;;;;;;;1999.90;999.90;;;;;;;;;;5050286;28;20419;-70
2022/09/07 02:12:12;;;;;;;1999.90;999.90;;;;;;;;;;5080522;27;20410;-70
2022/09/07 02:14:44;;;;;;;1999.90;999.90;;;;;;;;;;5060937;28;20410;-70
2022/09/07 02:17:21;;;;;;;1999.90;999.90;;;;;;;;;;5064245;27;21148;-70
2022/09/07 02:19:50;;;;;;;1999.90;999.90;;;;;;;;;;5062891;28;21234;-71
2022/09/07 02:22:20;;;;;;;1999.90;999.90;;;;;;;;;;5063336;28;20404;-69
2022/09/07 02:24:50;;;;;;;1999.90;999.90;;;;;;;;;;5047649;28;21183;-69
2022/09/07 02:27:19;;;;;;;1999.90;999.90;;;;;;;;;;5064033;28;20410;-70
2022/09/07 02:29:50;;;;;;;1999.90;999.90;;;;;;;;;;5047322;28;20473;-71
2022/09/07 02:32:18;;;;;;;1999.90;999.90;;;;;;;;;;5053505;28;20382;-71
2022/09/07 02:34:46;;;;;;;1999.90;999.90;;;;;;;;;;5065716;28;20406;-69
2022/09/07 02:37:14;;;;;;;1999.90;999.90;;;;;;;;;;5065429;28;20403;-68
2022/09/07 02:39:42;;;;;;;1999.90;999.90;;;;;;;;;;5064306;28;20907;-69
2022/09/07 02:42:10;;;;;;;1999.90;999.90;;;;;;;;;;5059460;28;20735;-70
2022/09/07 02:44:39;;;;;;;1999.90;999.90;;;;;;;;;;5066673;28;20417;-68
2022/09/07 02:47:19;;;;;;;1999.90;999.90;;;;;;;;;;5061973;28;20401;-69
2022/09/07 02:50:00;;;;;;;1999.90;999.90;;;;;;;;;;5062263;28;21144;-69
2022/09/07 02:52:33;;;;;;;1999.90;999.90;;;;;;;;;;5060037;28;20416;-69
2022/09/07 02:55:07;;;;;;;1999.90;999.90;;;;;;;;;;5065089;28;20417;-68
2022/09/07 02:57:40;;;;;;;1999.90;999.90;;;;;;;;;;5075642;28;20409;-69
2022/09/07 03:00:10;;;;;;;1999.90;999.90;;;;;;;;;;5062835;28;20404;-69
2022/09/07 03:02:50;;;;;;;1999.90;999.90;;;;;;;;;;5077619;27;20386;-69
2022/09/07 03:05:20;;;;;;;1999.90;999.90;;;;;;;;;;5068756;28;20439;-70
2022/09/07 03:07:50;;;;;;;1999.90;999.90;;;;;;;;;;5071830;28;20389;-69
2022/09/07 03:10:18;;;;;;;1999.90;999.90;;;;;;;;;;5073421;28;20428;-70
2022/09/07 03:12:48;;;;;;;1999.90;999.90;;;;;;;;;;5072961;28;20399;-69
2022/09/07 03:15:17;;;;;;;1999.90;999.90;;;;;;;;;;5070266;28;20408;-70
2022/09/07 03:17:46;;;;;;;1999.90;999.90;;;;;;;;;;5074068;28;20811;-70
2022/09/07 03:20:15;;;;;;;1999.90;999.90;;;;;;;;;;5068805;28;20410;-69
2022/09/07 03:22:43;;;;;;;1999.90;999.90;;;;;;;;;;5081163;28;20398;-69
2022/09/07 03:25:11;;;;;;;1999.90;999.90;;;;;;;;;;5071700;28;20490;-68
2022/09/07 03:27:38;;;;;;;1999.90;999.90;;;;;;;;;;5086690;27;21285;-69
2022/09/07 03:30:07;;;;;;;1999.90;999.90;;;;;;;;;;5072264;28;20840;-69
2022/09/07 03:32:36;;;;;;;1999.90;999.90;;;;;;;;;;5070885;28;21115;-68
2022/09/07 03:35:06;;;;;;;1999.90;999.90;;;;;;;;;;5072567;28;20436;-69
2022/09/07 03:37:35;;;;;;;1999.90;999.90;;;;;;;;;;5083996;28;20393;-69
2022/09/07 03:40:03;;;;;;;1999.90;999.90;;;;;;;;;;5071183;28;21235;-70
2022/09/07 03:42:31;;;;;;;1999.90;999.90;;;;;;;;;;5050918;28;20418;-69
2022/09/07 03:44:59;;;;;;;1999.90;999.90;;;;;;;;;;5071220;28;20393;-70
2022/09/07 03:47:27;;;;;;;1999.90;999.90;;;;;;;;;;5071640;28;20387;-69
2022/09/07 03:49:54;;;;;;;1999.90;999.90;;;;;;;;;;5070762;28;20430;-69
2022/09/07 03:52:23;;;;;;;1999.90;999.90;;;;;;;;;;5067130;28;20396;-69
2022/09/07 03:54:51;;;;;;;1999.90;999.90;;;;;;;;;;5071310;28;20406;-69
2022/09/07 03:57:19;;;;;;;1999.90;999.90;;;;;;;;;;5070098;28;20422;-68
2022/09/07 03:59:48;;;;;;;1999.90;999.90;;;;;;;;;;5079826;28;20423;-69
2022/09/07 04:02:16;;;;;;;1999.90;999.90;;;;;;;;;;5069277;28;20402;-70
2022/09/07 04:04:44;;;;;;;1999.90;999.90;;;;;;;;;;5077774;28;20481;-69
2022/09/07 04:07:12;;;;;;;1999.90;999.90;;;;;;;;;;5065035;28;20406;-70
2022/09/07 04:09:42;;;;;;;1999.90;999.90;;;;;;;;;;5068957;28;21322;-69
2022/09/07 04:12:09;;;;;;;1999.90;999.90;;;;;;;;;;5063139;28;20515;-68
2022/09/07 04:14:37;;;;;;;1999.90;999.90;;;;;;;;;;5066777;28;20425;-69
2022/09/07 04:17:05;;;;;;;1999.90;999.90;;;;;;;;;;5081916;27;20877;-68
2022/09/07 04:19:33;;;;;;;1999.90;999.90;;;;;;;;;;5069563;28;20472;-69
2022/09/07 04:22:01;;;;;;;1999.90;999.90;;;;;;;;;;5072857;28;20413;-69
2022/09/07 04:24:28;;;;;;;1999.90;999.90;;;;;;;;;;5073396;28;20378;-68
2022/09/07 04:26:57;;;;;;;1999.90;999.90;;;;;;;;;;5066192;28;20391;-69
2022/09/07 04:29:25;;;;;;;1999.90;999.90;;;;;;;;;;5075252;28;21021;-70
2022/09/07 04:31:53;;;;;;;1999.90;999.90;;;;;;;;;;5074394;28;20393;-69
2022/09/07 04:34:21;;;;;;;1999.90;999.90;;;;;;;;;;5070070;28;20915;-70
2022/09/07 04:36:49;;;;;;;1999.90;999.90;;;;;;;;;;5069913;28;20387;-69
2022/09/07 04:39:16;;;;;;;1999.90;999.90;;;;;;;;;;5069366;28;21205;-69
2022/09/07 04:41:44;;;;;;;1999.90;999.90;;;;;;;;;;5067004;28;20393;-69
2022/09/07 04:44:13;;;;;;;1999.90;999.90;;;;;;;;;;5067532;28;20827;-69
2022/09/07 04:46:43;;;;;;;1999.90;999.90;;;;;;;;;;5069507;28;21245;-70
2022/09/07 04:49:12;;;;;;;1999.90;999.90;;;;;;;;;;5075637;28;21221;-70
2022/09/07 04:51:41;;;;;;;1999.90;999.90;;;;;;;;;;5073616;28;20477;-70
2022/09/07 04:54:09;;;;;;;1999.90;999.90;;;;;;;;;;5065712;28;20411;-69
2022/09/07 04:56:36;;;;;;;1999.90;999.90;;;;;;;;;;5070339;28;20436;-70
2022/09/07 04:59:04;;;;;;;1999.90;999.90;;;;;;;;;;5068253;28;20418;-69
2022/09/07 05:01:33;;;;;;;1999.90;999.90;;;;;;;;;;5088316;27;20401;-70
2022/09/07 05:04:02;;;;;;;1999.90;999.90;;;;;;;;;;5074346;28;21398;-70
2022/09/07 05:06:30;;;;;;;1999.90;999.90;;;;;;;;;;5051045;28;20391;-70
2022/09/07 05:08:58;;;;;;;1999.90;999.90;;;;;;;;;;5067815;28;20423;-69
2022/09/07 05:11:27;;;;;;;1999.90;999.90;;;;;;;;;;5070045;28;20397;-70
2022/09/07 05:13:56;;;;;;;1999.90;999.90;;;;;;;;;;5067506;28;20410;-69
2022/09/07 05:16:25;;;;;;;1999.90;999.90;;;;;;;;;;5067752;28;21292;-70
2022/09/07 05:18:55;;;;;;;1999.90;999.90;;;;;;;;;;5069271;28;20424;-70
2022/09/07 05:21:24;;;;;;;1999.90;999.90;;;;;;;;;;5067726;28;20492;-70
2022/09/07 05:23:52;;;;;;;1999.90;999.90;;;;;;;;;;5068141;28;20917;-70
2022/09/07 05:26:21;;;;;;;1999.90;999.90;;;;;;;;;;5070229;28;20408;-70
2022/09/07 05:28:49;;;;;;;1999.90;999.90;;;;;;;;;;5070668;28;20500;-70
2022/09/07 05:31:18;;;;;;;1999.90;999.90;;;;;;;;;;5070107;28;21453;-70
2022/09/07 05:33:47;;;;;;;1999.90;999.90;;;;;;;;;;5072276;28;20396;-70
2022/09/07 05:36:36;;;;;;;1999.90;999.90;;;;;;;;;;5069036;28;20536;-70
2022/09/07 05:39:05;;;;;;;1999.90;999.90;;;;;;;;;;5053352;28;20983;-70
2022/09/07 05:41:33;;;;;;;1999.90;999.90;;;;;;;;;;5072066;28;20872;-69
2022/09/07 05:44:01;;;;;;;1999.90;999.90;;;;;;;;;;5071869;28;21189;-69
2022/09/07 05:46:48;;;;;;;1999.90;999.90;;;;;;;;;;5074558;28;20424;-70
2022/09/07 05:49:16;;;;;;;1999.90;999.90;;;;;;;;;;5055157;28;20451;-70
2022/09/07 05:51:45;;;;;;;1999.90;999.90;;;;;;;;;;5071405;28;20409;-70
2022/09/07 05:54:13;;;;;;;1999.90;999.90;;;;;;;;;;5073688;28;20402;-69
2022/09/07 05:56:41;;;;;;;1999.90;999.90;;;;;;;;;;5072312;28;20406;-70
2022/09/07 05:59:09;;;;;;;1999.90;999.90;;;;;;;;;;5069943;28;20416;-70
2022/09/07 06:01:37;;;;;;;1999.90;999.90;;;;;;;;;;5055837;28;20414;-69
2022/09/07 06:04:05;;;;;;;1999.90;999.90;;;;;;;;;;5074109;28;20407;-70
2022/09/07 06:06:37;;;;;;;1999.90;999.90;;;;;;;;;;5071767;28;20448;-70
2022/09/07 06:09:06;;;;;;;1999.90;999.90;;;;;;;;;;5067583;28;20477;-70
2022/09/07 06:11:36;;;;;;;1999.90;999.90;;;;;;;;;;5067974;28;21090;-70
2022/09/07 06:14:03;;;;;;;1999.90;999.90;;;;;;;;;;5071941;28;20509;-70
2022/09/07 06:16:33;;;;;;;1999.90;999.90;;;;;;;;;;5066701;28;20448;-70
2022/09/07 06:19:04;;;;;;;1999.90;999.90;;;;;;;;;;5066808;28;20449;-69
2022/09/07 06:21:34;;;;;;;1999.90;999.90;;;;;;;;;;5071977;28;20398;-70
2022/09/07 06:24:03;;;;;;;1999.90;999.90;;;;;;;;;;5062381;28;20395;-69
2022/09/07 06:26:32;;;;;;;1999.90;999.90;;;;;;;;;;5070272;28;20383;-70
2022/09/07 06:29:01;;;;;;;1999.90;999.90;;;;;;;;;;5071302;28;20383;-70
2022/09/07 06:31:29;;;;;;;1999.90;999.90;;;;;;;;;;5063346;28;20508;-70
2022/09/07 06:33:57;;;;;;;1999.90;999.90;;;;;;;;;;5064216;28;20497;-70
2022/09/07 06:36:26;;;;;;;1999.90;999.90;;;;;;;;;;5065894;28;20411;-70
2022/09/07 06:38:55;;;;;;;1999.90;999.90;;;;;;;;;;5048521;28;20402;-70
2022/09/07 06:41:23;;;;;;;1999.90;999.90;;;;;;;;;;5065054;28;20798;-70
2022/09/07 06:44:18;;;;;;;1999.90;999.90;;;;;;;;;;5079603;28;20407;-70
2022/09/07 06:46:46;;;;;;;1999.90;999.90;;;;;;;;;;5079388;28;20388;-70
2022/09/07 06:49:30;;;;;;;1999.90;999.90;;;;;;;;;;5048639;28;20473;-70
2022/09/07 06:51:58;;;;;;;1999.90;999.90;;;;;;;;;;5069023;28;21065;-69
2022/09/07 06:54:25;;;;;;;1999.90;999.90;;;;;;;;;;5065701;28;20478;-70
2022/09/07 06:57:13;;;;;;;1999.90;999.90;;;;;;;;;;5066144;28;20398;-69
2022/09/07 06:59:42;;;;;;;1999.90;999.90;;;;;;;;;;5082649;27;20416;-70
2022/09/07 07:02:11;;;;;;;1999.90;999.90;;;;;;;;;;5067258;28;20387;-69
2022/09/07 07:04:39;;;;;;;1999.90;999.90;;;;;;;;;;5070516;28;20418;-70
2022/09/07 07:07:09;;;;;;;1999.90;999.90;;;;;;;;;;5067915;28;20966;-70
2022/09/07 07:09:37;;;;;;;1999.90;999.90;;;;;;;;;;5084954;27;20414;-70
2022/09/07 07:12:05;;;;;;;1999.90;999.90;;;;;;;;;;5069918;28;20413;-70
2022/09/07 07:14:34;;;;;;;1999.90;999.90;;;;;;;;;;5065589;28;20506;-70
2022/09/07 07:17:07;;;;;;;1999.90;999.90;;;;;;;;;;5067375;28;20902;-70
2022/09/07 07:19:39;;;;;;;1999.90;999.90;;;;;;;;;;5064984;28;20915;-70
2022/09/07 07:22:07;;;;;;;1999.90;999.90;;;;;;;;;;5063516;28;20453;-70
2022/09/07 07:24:54;;;;;;;1999.90;999.90;;;;;;;;;;5063243;28;21150;-70
2022/09/07 07:27:22;;;;;;;1999.90;999.90;;;;;;;;;;5065375;28;20415;-69
2022/09/07 07:29:51;;;;;;;1999.90;999.90;;;;;;;;;;5064539;28;20415;-69
2022/09/07 07:32:20;;;;;;;1999.90;999.90;;;;;;;;;;5064392;28;20393;-69
2022/09/07 07:34:50;;;;;;;1999.90;999.90;;;;;;;;;;5065335;28;20402;-69
2022/09/07 07:37:18;;;;;;;1999.90;999.90;;;;;;;;;;5070003;28;20399;-69
2022/09/07 07:39:46;;;;;;;1999.90;999.90;;;;;;;;;;5067736;28;20409;-70
2022/09/07 07:42:34;;;;;;;1999.90;999.90;;;;;;;;;;5065722;28;20386;-70
2022/09/07 07:45:02;;;;;;;1999.90;999.90;;;;;;;;;;5065965;28;20492;-70
2022/09/07 07:47:51;;;;;;;1999.90;999.90;;;;;;;;;;5081374;28;20409;-70
2022/09/07 07:50:19;;;;;;;1999.90;999.90;;;;;;;;;;5066987;28;21032;-75
2022/09/07 07:53:04;;;;;;;1999.90;999.90;;;;;;;;;;5064817;28;20410;-70
2022/09/07 07:55:52;;;;;;;1999.90;999.90;;;;;;;;;;5073183;28;20417;-71
2022/09/07 07:58:20;;;;;;;1999.90;999.90;;;;;;;;;;5066880;28;20399;-71
2022/09/07 08:00:48;;;;;;;1999.90;999.90;;;;;;;;;;5068039;28;20406;-71
2022/09/07 08:03:25;;;;;;;1999.90;999.90;;;;;;;;;;5067434;28;20382;-71
2022/09/07 08:05:53;;;;;;;1999.90;999.90;;;;;;;;;;5081326;28;20409;-71
2022/09/07 08:08:21;;;;;;;1999.90;999.90;;;;;;;;;;5067431;28;20389;-70
2022/09/07 08:10:49;;;;;;;1999.90;999.90;;;;;;;;;;5056674;28;20409;-71
2022/09/07 08:13:17;;;;;;;1999.90;999.90;;;;;;;;;;5068791;28;20534;-71
2022/09/07 08:15:45;;;;;;;1999.90;999.90;;;;;;;;;;5069094;28;20397;-70
2022/09/07 08:18:14;;;;;;;1999.90;999.90;;;;;;;;;;5067964;28;20434;-71
2022/09/07 08:20:43;;;;;;;1999.90;999.90;;;;;;;;;;5067115;28;21650;-71
2022/09/07 08:23:11;;;;;;;1999.90;999.90;;;;;;;;;;5067497;28;20478;-71
2022/09/07 08:25:48;;;;;;;1999.90;999.90;;;;;;;;;;5069183;28;20457;-71
2022/09/07 08:28:16;;;;;;;1999.90;999.90;;;;;;;;;;5067862;28;20410;-70
2022/09/07 08:30:43;;;;;;;1999.90;999.90;;;;;;;;;;5070804;28;20494;-70
2022/09/07 08:33:11;;;;;;;1999.90;999.90;;;;;;;;;;5081565;28;20447;-70
2022/09/07 08:35:39;;;;;;;1999.90;999.90;;;;;;;;;;5069255;28;20469;-70
2022/09/07 08:38:08;;;;;;;1999.90;999.90;;;;;;;;;;5069010;28;20391;-70
2022/09/07 08:40:36;;;;;;;1999.90;999.90;;;;;;;;;;5066094;28;20802;-70
2022/09/07 08:43:12;;;;;;;1999.90;999.90;;;;;;;;;;5067310;28;20967;-70
2022/09/07 08:45:43;;;;;;;1999.90;999.90;;;;;;;;;;5067727;28;20438;-71
2022/09/07 08:48:13;;;;;;;1999.90;999.90;;;;;;;;;;5066632;28;20393;-71
2022/09/07 08:50:45;;;;;;;1999.90;999.90;;;;;;;;;;5070072;28;20395;-70
2022/09/07 08:53:15;;;;;;;1999.90;999.90;;;;;;;;;;5079285;28;20394;-71
2022/09/07 08:55:46;;;;;;;1999.90;999.90;;;;;;;;;;5068965;28;20444;-71
2022/09/07 08:58:16;;;;;;;1999.90;999.90;;;;;;;;;;5070299;28;20395;-71
2022/09/07 09:01:09;;;;;;;1999.90;999.90;;;;;;;;;;5066800;28;20477;-71
2022/09/07 09:03:57;;;;;;;1999.90;999.90;;;;;;;;;;5067091;28;20979;-71
2022/09/07 09:06:49;;;;;;;1999.90;999.90;;;;;;;;;;5067834;28;20457;-71
2022/09/07 09:09:19;;;;;;;1999.90;999.90;;;;;;;;;;5067276;28;20981;-71
2022/09/07 09:11:50;;;;;;;1999.90;999.90;;;;;;;;;;5068196;28;20407;-71
2022/09/07 09:14:20;;;;;;;1999.90;999.90;;;;;;;;;;5066877;28;20498;-71
2022/09/07 09:16:51;;;;;;;1999.90;999.90;;;;;;;;;;5080775;28;20968;-71
2022/09/07 09:19:30;;;;;;;1999.90;999.90;;;;;;;;;;5081657;28;20385;-72
2022/09/07 09:22:04;;;;;;;1999.90;999.90;;;;;;;;;;5066914;28;20515;-71
2022/09/07 09:24:36;;;;;;;1999.90;999.90;;;;;;;;;;5065354;28;20410;-71
2022/09/07 09:27:04;;;;;;;1999.90;999.90;;;;;;;;;;5066779;28;20481;-71
2022/09/07 09:29:32;;;;;;;1999.90;999.90;;;;;;;;;;5066965;28;20441;-71
2022/09/07 09:32:20;;;;;;;1999.90;999.90;;;;;;;;;;5070287;28;20398;-70
2022/09/07 09:34:59;;;;;;;1999.90;999.90;;;;;;;;;;5068577;28;20395;-71
2022/09/07 09:37:32;;;;;;;1999.90;999.90;;;;;;;;;;5068446;28;20411;-70
2022/09/07 09:40:02;;;;;;;1999.90;999.90;;;;;;;;;;5062448;28;20549;-70
2022/09/07 09:42:32;;;;;;;1999.90;999.90;;;;;;;;;;5066340;28;20389;-71
2022/09/07 09:45:06;;;;;;;1999.90;999.90;;;;;;;;;;5066825;28;20431;-71
2022/09/07 09:47:35;;;;;;;1999.90;999.90;;;;;;;;;;5089864;27;20434;-70
2022/09/07 09:50:05;;;;;;;1999.90;999.90;;;;;;;;;;5070761;28;20409;-71
2022/09/07 09:52:34;;;;;;;1999.90;999.90;;;;;;;;;;5068208;28;20901;-70
2022/09/07 09:55:22;;;;;;;1999.90;999.90;;;;;;;;;;5078730;28;20407;-71
2022/09/07 09:58:03;;;;;;;1999.90;999.90;;;;;;;;;;5085443;27;20444;-71
2022/09/07 10:00:54;;;;;;;1999.90;999.90;;;;;;;;;;5071461;28;21363;-70
2022/09/07 10:03:42;;;;;;;1999.90;999.90;;;;;;;;;;5045868;28;20501;-70
2022/09/07 10:06:29;;;;;;;1999.90;999.90;;;;;;;;;;5064498;28;20502;-70
2022/09/07 10:08:58;;;;;;;1999.90;999.90;;;;;;;;;;5065933;28;20412;-71
2022/09/07 10:11:41;;;;;;;1999.90;999.90;;;;;;;;;;5069047;28;20444;-71
2022/09/07 10:14:31;;;;;;;1999.90;999.90;;;;;;;;;;5076379;28;20511;-71
2022/09/07 10:16:59;;;;;;;1999.90;999.90;;;;;;;;;;5067327;28;21309;-71
2022/09/07 10:19:32;;;;;;;1999.90;999.90;;;;;;;;;;5078736;28;20488;-71
2022/09/07 10:22:00;;;;;;;1999.90;999.90;;;;;;;;;;5066383;28;20394;-71
2022/09/07 10:24:31;;;;;;;1999.90;999.90;;;;;;;;;;5081988;28;20413;-71
2022/09/07 10:26:59;;;;;;;1999.90;999.90;;;;;;;;;;5070038;28;20436;-71
2022/09/07 10:29:28;;;;;;;1999.90;999.90;;;;;;;;;;5078299;28;20468;-71
2022/09/07 10:32:13;;;;;;;1999.90;999.90;;;;;;;;;;5077747;28;20390;-71
2022/09/07 10:34:46;;;;;;;1999.90;999.90;;;;;;;;;;5063866;28;20389;-71
2022/09/07 10:37:20;;;;;;;1999.90;999.90;;;;;;;;;;5086202;27;20393;-71
2022/09/07 10:39:54;;;;;;;1999.90;999.90;;;;;;;;;;5068061;28;20418;-71
2022/09/07 10:42:29;;;;;;;1999.90;999.90;;;;;;;;;;5069008;28;20421;-73
2022/09/07 10:45:03;;;;;;;1999.90;999.90;;;;;;;;;;5069182;28;20425;-73
2022/09/07 10:47:38;;;;;;;1999.90;999.90;;;;;;;;;;5068705;28;20836;-72
2022/09/07 10:50:08;;;;;;;1999.90;999.90;;;;;;;;;;5073044;28;20417;-72
2022/09/07 10:52:54;;;;;;;1999.90;999.90;;;;;;;;;;5053546;28;20439;-72
2022/09/07 10:55:25;;;;;;;1999.90;999.90;;;;;;;;;;5074747;28;20385;-72
2022/09/07 10:57:57;;;;;;;1999.90;999.90;;;;;;;;;;5065303;28;21227;-71
2022/09/07 11:00:27;;;;;;;1999.90;999.90;;;;;;;;;;5065282;28;21147;-72
2022/09/07 11:03:05;;;;;;;1999.90;999.90;;;;;;;;;;5070094;28;20850;-71
2022/09/07 11:06:00;;;;;;;1999.90;999.90;;;;;;;;;;5065919;28;20411;-72
2022/09/07 11:08:33;;;;;;;1999.90;999.90;;;;;;;;;;5066609;28;20448;-72
2022/09/07 11:11:25;;;;;;;1999.90;999.90;;;;;;;;;;5067962;28;20421;-72
2022/09/07 11:14:14;;;;;;;1999.90;999.90;;;;;;;;;;5063318;28;21369;-71
2022/09/07 11:16:45;;;;;;;1999.90;999.90;;;;;;;;;;5066955;28;20513;-71
2022/09/07 11:19:23;;;;;;;1999.90;999.90;;;;;;;;;;5065959;28;20421;-73
2022/09/07 11:22:14;;;;;;;1999.90;999.90;;;;;;;;;;5071394;28;20928;-72
2022/09/07 11:24:45;;;;;;;1999.90;999.90;;;;;;;;;;5066799;28;20488;-71
2022/09/07 11:27:16;;;;;;;1999.90;999.90;;;;;;;;;;5064704;28;21419;-72
2022/09/07 11:29:47;;;;;;;1999.90;999.90;;;;;;;;;;5069821;28;20393;-71
2022/09/07 11:32:19;;;;;;;1999.90;999.90;;;;;;;;;;5063272;28;20419;-71
2022/09/07 11:34:50;;;;;;;1999.90;999.90;;;;;;;;;;5070613;28;20442;-71
2022/09/07 11:37:20;;;;;;;1999.90;999.90;;;;;;;;;;5069984;28;21332;-72
2022/09/07 11:39:50;;;;;;;1999.90;999.90;;;;;;;;;;5068761;28;20383;-71
2022/09/07 11:42:22;;;;;;;1999.90;999.90;;;;;;;;;;5069495;28;20493;-71
2022/09/07 11:45:14;;;;;;;1999.90;999.90;;;;;;;;;;5052052;28;20480;-71
2022/09/07 11:47:44;;;;;;;1999.90;999.90;;;;;;;;;;5069182;28;20403;-70
2022/09/07 11:50:15;;;;;;;1999.90;999.90;;;;;;;;;;5069021;28;20395;-71
2022/09/07 11:52:45;;;;;;;1999.90;999.90;;;;;;;;;;5070931;28;20398;-71
2022/09/07 11:55:19;;;;;;;1999.90;999.90;;;;;;;;;;5071228;28;20389;-70
2022/09/07 11:57:53;;;;;;;1999.90;999.90;;;;;;;;;;5084685;28;20401;-71
2022/09/07 12:00:23;;;;;;;1999.90;999.90;;;;;;;;;;5071337;28;20402;-70
2022/09/07 12:03:09;;;;;;;1999.90;999.90;;;;;;;;;;5068194;28;20458;-69
2022/09/07 12:05:49;;;;;;;1999.90;999.90;;;;;;;;;;5067171;28;20878;-70
2022/09/07 12:08:22;;;;;;;1999.90;999.90;;;;;;;;;;5070555;28;20468;-71
2022/09/07 12:11:03;;;;;;;1999.90;999.90;;;;;;;;;;5069365;28;20434;-69
2022/09/07 12:13:41;;;;;;;1999.90;999.90;;;;;;;;;;5069136;28;20438;-70
2022/09/07 12:16:11;;;;;;;1999.90;999.90;;;;;;;;;;5066703;28;20409;-69
2022/09/07 12:18:50;;;;;;;1999.90;999.90;;;;;;;;;;5069709;28;20492;-70
2022/09/07 12:21:34;;;;;;;1999.90;999.90;;;;;;;;;;5071738;28;20484;-72
2022/09/07 12:24:03;;;;;;;1999.90;999.90;;;;;;;;;;5072567;28;20413;-70
2022/09/07 12:26:48;;;;;;;1999.90;999.90;;;;;;;;;;5088542;28;20402;-70
2022/09/07 12:29:23;;;;;;;1999.90;999.90;;;;;;;;;;5088043;27;21206;-71
2022/09/07 12:31:52;;;;;;;1999.90;999.90;;;;;;;;;;5071956;28;20407;-70
2022/09/07 12:34:49;;;;;;;1999.90;999.90;;;;;;;;;;5068467;28;20422;-71
2022/09/07 12:37:35;;;;;;;1999.90;999.90;;;;;;;;;;5071708;28;20449;-70
2022/09/07 12:40:18;;;;;;;1999.90;999.90;;;;;;;;;;5070309;28;20835;-70
2022/09/07 12:42:47;;;;;;;1999.90;999.90;;;;;;;;;;5062679;28;20477;-70
2022/09/07 12:45:36;;;;;;;1999.90;999.90;;;;;;;;;;5068785;28;21371;-70
2022/09/07 12:48:07;;;;;;;1999.90;999.90;;;;;;;;;;5081374;28;20460;-70
2022/09/07 12:50:36;;;;;;;1999.90;999.90;;;;;;;;;;5072774;28;20383;-70
2022/09/07 12:53:19;;;;;;;1999.90;999.90;;;;;;;;;;5071453;28;20402;-70
2022/09/07 12:56:00;;;;;;;1999.90;999.90;;;;;;;;;;5083677;28;20870;-74
2022/09/07 12:58:55;;;;;;;1999.90;999.90;;;;;;;;;;5073670;28;20407;-73
2022/09/07 13:01:31;;;;;;;1999.90;999.90;;;;;;;;;;5082869;28;20394;-73
2022/09/07 13:04:08;;;;;;;1999.90;999.90;;;;;;;;;;5073255;28;20897;-73
2022/09/07 13:06:46;;;;;;;1999.90;999.90;;;;;;;;;;5081326;28;20472;-74
2022/09/07 13:09:31;;;;;;;1999.90;999.90;;;;;;;;;;5083513;28;20400;-73
2022/09/07 13:11:59;;;;;;;1999.90;999.90;;;;;;;;;;5068521;28;20387;-74
2022/09/07 13:14:29;;;;;;;1999.90;999.90;;;;;;;;;;5069530;28;20402;-70
2022/09/07 13:17:15;;;;;;;1999.90;999.90;;;;;;;;;;5069016;28;20421;-70
2022/09/07 13:20:03;;;;;;;1999.90;999.90;;;;;;;;;;5070863;28;20382;-72
2022/09/07 13:22:49;;;;;;;1999.90;999.90;;;;;;;;;;5067978;28;20402;-70
2022/09/07 13:25:35;;;;;;;1999.90;999.90;;;;;;;;;;5066069;28;20407;-70
2022/09/07 13:28:04;;;;;;;1999.90;999.90;;;;;;;;;;5067305;28;20404;-70
2022/09/07 13:30:45;;;;;;;1999.90;999.90;;;;;;;;;;5067976;28;20856;-71
2022/09/07 13:33:32;;;;;;;1999.90;999.90;;;;;;;;;;5063597;28;20403;-71
2022/09/07 13:36:01;;;;;;;1999.90;999.90;;;;;;;;;;5064158;28;20475;-70
2022/09/07 13:38:29;;;;;;;1999.90;999.90;;;;;;;;;;5063113;28;20430;-69
2022/09/07 13:41:03;;;;;;;1999.90;999.90;;;;;;;;;;5062543;28;20406;-70
2022/09/07 13:43:30;;;;;;;1999.90;999.90;;;;;;;;;;5072434;28;20399;-70
2022/09/07 13:46:02;;;;;;;1999.90;999.90;;;;;;;;;;5065982;28;20909;-70
2022/09/07 13:48:32;;;;;;;1999.90;999.90;;;;;;;;;;5066141;28;20407;-70
2022/09/07 13:51:05;;;;;;;1999.90;999.90;;;;;;;;;;5081335;27;20419;-70
2022/09/07 13:53:36;;;;;;;1999.90;999.90;;;;;;;;;;5068653;28;20931;-69
2022/09/07 13:56:09;;;;;;;1999.90;999.90;;;;;;;;;;5065216;28;20534;-70
2022/09/07 13:58:39;;;;;;;1999.90;999.90;;;;;;;;;;5067337;28;20422;-69
2022/09/07 14:01:15;;;;;;;1999.90;999.90;;;;;;;;;;5068278;28;20903;-71
2022/09/07 14:03:46;;;;;;;1999.90;999.90;;;;;;;;;;5081601;28;20943;-70
2022/09/07 14:06:15;;;;;;;1999.90;999.90;;;;;;;;;;5066034;28;20413;-71
2022/09/07 14:08:46;;;;;;;1999.90;999.90;;;;;;;;;;5066704;28;20418;-70
2022/09/07 14:11:18;;;;;;;1999.90;999.90;;;;;;;;;;5069699;28;20387;-71